sensor_id;sensor_type;location;lat;lon;timestamp;pressure;altitude;pressure_sealevel;temperature;humidity
5595;BME280;1003;48.002;7.788;2022-11-28T00:00:19;99631.47;;;4.80;100.00
5595;BME280;1003;48.002;7.788;2022-11-28T00:02:46;99635.66;;;4.81;100.00
5595;BME280;1003;48.002;7.788;2022-11-28T00:05:13;99634.84;;;4.83;100.00
5595;BME280;1003;48.002;7.788;2022-11-28T00:07:40;99644.09;;;4.89;100.00
5595;BME280;1003;48.002;7.788;2022-11-28T00:10:10;99646.69;;;4.93;100.00
5595;BME280;1003;48.002;7.788;2022-11-28T00:12:37;99660.03;;;4.95;100.00
5595;BME280;1003;48.002;7.788;2022-11-28T00:15:05;99667.50;;;4.95;100.00
5595;BME280;1003;48.002;7.788;2022-11-28T00:17:33;99667.50;;;4.95;100.00
5595;BME280;1003;48.002;7.788;2022-11-28T00:20:00;99672.53;;;4.98;100.00
5595;BME280;1003;48.002;7.788;2022-11-28T00:22:27;99669.94;;;4.94;100.00
5595;BME280;1003;48.002;7.788;2022-11-28T00:24:54;99680.69;;;4.91;100.00
5595;BME280;1003;48.002;7.788;2022-11-28T00:27:23;99688.78;;;4.81;100.00
5595;BME280;1003;48.002;7.788;2022-11-28T00:29:50;99708.69;;;4.80;100.00
5595;BME280;1003;48.002;7.788;2022-11-28T00:32:17;99706.91;;;4.76;100.00
5595;BME280;1003;48.002;7.788;2022-11-28T00:34:44;99707.59;;;4.68;100.00
5595;BME280;1003;48.002;7.788;2022-11-28T00:37:12;99701.50;;;4.56;100.00
5595;BME280;1003;48.002;7.788;2022-11-28T00:39:39;99703.97;;;4.56;100.00
5595;BME280;1003;48.002;7.788;2022-11-28T00:42:06;99711.31;;;4.50;100.00
5595;BME280;1003;48.002;7.788;2022-11-28T00:44:34;99776.81;;;4.47;100.00
5595;BME280;1003;48.002;7.788;2022-11-28T00:47:01;99791.78;;;4.48;100.00
5595;BME280;1003;48.002;7.788;2022-11-28T00:49:28;99804.19;;;4.47;100.00
5595;BME280;1003;48.002;7.788;2022-11-28T00:51:55;99830.88;;;4.53;100.00
5595;BME280;1003;48.002;7.788;2022-11-28T00:54:22;99840.78;;;4.51;100.00
5595;BME280;1003;48.002;7.788;2022-11-28T00:56:49;100337.84;;;4.52;100.00
5595;BME280;1003;48.002;7.788;2022-11-28T00:59:16;100346.41;;;4.60;100.00
5595;BME280;1003;48.002;7.788;2022-11-28T01:01:45;100366.38;;;4.62;100.00
5595;BME280;1003;48.002;7.788;2022-11-28T01:04:15;100380.47;;;4.61;100.00
5595;BME280;1003;48.002;7.788;2022-11-28T01:06:46;100383.88;;;4.63;100.00
5595;BME280;1003;48.002;7.788;2022-11-28T01:09:16;100395.38;;;4.60;100.00
5595;BME280;1003;48.002;7.788;2022-11-28T01:11:45;100402.50;;;4.51;100.00
5595;BME280;1003;48.002;7.788;2022-11-28T01:14:14;100415.81;;;4.51;100.00
5595;BME280;1003;48.002;7.788;2022-11-28T01:16:41;100415.59;;;4.45;100.00
5595;BME280;1003;48.002;7.788;2022-11-28T01:19:10;100433.03;;;4.45;100.00
5595;BME280;1003;48.002;7.788;2022-11-28T01:21:38;100432.97;;;4.43;100.00
5595;BME280;1003;48.002;7.788;2022-11-28T01:24:06;100448.81;;;4.45;100.00
5595;BME280;1003;48.002;7.788;2022-11-28T01:26:33;100451.19;;;4.42;100.00
5595;BME280;1003;48.002;7.788;2022-11-28T01:29:00;100466.44;;;4.52;100.00
5595;BME280;1003;48.002;7.788;2022-11-28T01:31:29;100491.66;;;4.61;100.00
5595;BME280;1003;48.002;7.788;2022-11-28T01:33:56;100517.00;;;4.73;100.00
5595;BME280;1003;48.002;7.788;2022-11-28T01:36:26;100533.66;;;4.74;100.00
5595;BME280;1003;48.002;7.788;2022-11-28T01:38:53;100539.47;;;4.74;100.00
5595;BME280;1003;48.002;7.788;2022-11-28T01:41:24;100543.72;;;4.77;100.00
5595;BME280;1003;48.002;7.788;2022-11-28T01:44:07;100532.91;;;4.77;100.00
5595;BME280;1003;48.002;7.788;2022-11-28T01:46:54;100540.41;;;4.78;100.00
5595;BME280;1003;48.002;7.788;2022-11-28T01:49:26;100542.13;;;4.79;100.00
5595;BME280;1003;48.002;7.788;2022-11-28T01:52:02;100539.66;;;4.79;100.00
5595;BME280;1003;48.002;7.788;2022-11-28T01:54:33;100533.78;;;4.79;100.00
5595;BME280;1003;48.002;7.788;2022-11-28T01:57:05;100529.72;;;4.81;100.00
5595;BME280;1003;48.002;7.788;2022-11-28T01:59:38;100523.91;;;4.80;100.00
5595;BME280;1003;48.002;7.788;2022-11-28T02:02:17;100539.06;;;4.86;100.00
5595;BME280;1003;48.002;7.788;2022-11-28T02:04:47;100529.09;;;4.86;100.00
5595;BME280;1003;48.002;7.788;2022-11-28T02:07:18;100538.25;;;4.87;100.00
5595;BME280;1003;48.002;7.788;2022-11-28T02:09:45;100532.47;;;4.88;100.00
5595;BME280;1003;48.002;7.788;2022-11-28T02:12:41;100521.66;;;4.88;100.00
5595;BME280;1003;48.002;7.788;2022-11-28T02:15:31;100501.72;;;4.88;100.00
5595;BME280;1003;48.002;7.788;2022-11-28T02:18:18;100512.75;;;4.94;100.00
5595;BME280;1003;48.002;7.788;2022-11-28T02:21:17;100514.56;;;4.98;100.00
5595;BME280;1003;48.002;7.788;2022-11-28T02:24:42;100489.00;;;5.04;100.00
5595;BME280;1003;48.002;7.788;2022-11-28T02:27:34;100480.97;;;5.13;100.00
5595;BME280;1003;48.002;7.788;2022-11-28T02:30:14;100456.75;;;5.09;100.00
5595;BME280;1003;48.002;7.788;2022-11-28T02:33:05;100431.03;;;5.10;100.00
5595;BME280;1003;48.002;7.788;2022-11-28T02:35:44;100410.28;;;5.11;100.00
5595;BME280;1003;48.002;7.788;2022-11-28T02:38:26;100397.94;;;5.14;100.00
5595;BME280;1003;48.002;7.788;2022-11-28T02:41:03;100382.47;;;5.24;100.00
5595;BME280;1003;48.002;7.788;2022-11-28T02:43:44;100368.59;;;5.32;100.00
5595;BME280;1003;48.002;7.788;2022-11-28T02:46:21;100355.53;;;5.39;100.00
5595;BME280;1003;48.002;7.788;2022-11-28T02:48:57;100352.22;;;5.40;100.00
5595;BME280;1003;48.002;7.788;2022-11-28T02:51:31;100329.00;;;5.43;100.00
5595;BME280;1003;48.002;7.788;2022-11-28T02:54:03;100319.34;;;5.53;100.00
5595;BME280;1003;48.002;7.788;2022-11-28T02:56:31;100302.28;;;5.67;100.00
5595;BME280;1003;48.002;7.788;2022-11-28T02:58:58;100311.50;;;5.70;100.00
5595;BME280;1003;48.002;7.788;2022-11-28T03:01:31;100305.09;;;5.78;100.00
5595;BME280;1003;48.002;7.788;2022-11-28T03:04:22;100305.84;;;5.75;100.00
5595;BME280;1003;48.002;7.788;2022-11-28T03:07:08;100317.56;;;5.78;100.00
5595;BME280;1003;48.002;7.788;2022-11-28T03:10:15;100321.09;;;5.86;100.00
5595;BME280;1003;48.002;7.788;2022-11-28T03:12:55;100328.63;;;5.88;100.00
5595;BME280;1003;48.002;7.788;2022-11-28T03:15:35;100332.13;;;5.93;100.00
5595;BME280;1003;48.002;7.788;2022-11-28T03:18:12;100323.06;;;5.96;100.00
5595;BME280;1003;48.002;7.788;2022-11-28T03:20:48;100318.00;;;5.93;100.00
5595;BME280;1003;48.002;7.788;2022-11-28T03:23:22;100326.75;;;6.09;100.00
5595;BME280;1003;48.002;7.788;2022-11-28T03:25:58;100291.69;;;6.04;100.00
5595;BME280;1003;48.002;7.788;2022-11-28T03:28:33;100259.09;;;5.98;100.00
5595;BME280;1003;48.002;7.788;2022-11-28T03:31:04;100233.44;;;6.04;100.00
5595;BME280;1003;48.002;7.788;2022-11-28T03:33:37;100166.72;;;5.97;100.00
5595;BME280;1003;48.002;7.788;2022-11-28T03:36:15;100121.88;;;6.00;100.00
5595;BME280;1003;48.002;7.788;2022-11-28T03:38:47;100086.00;;;5.95;100.00
5595;BME280;1003;48.002;7.788;2022-11-28T03:41:22;100025.28;;;5.94;100.00
5595;BME280;1003;48.002;7.788;2022-11-28T03:43:55;100003.69;;;5.96;100.00
5595;BME280;1003;48.002;7.788;2022-11-28T03:46:34;99948.88;;;5.99;100.00
5595;BME280;1003;48.002;7.788;2022-11-28T03:49:05;99879.94;;;6.04;100.00
5595;BME280;1003;48.002;7.788;2022-11-28T03:51:40;99840.03;;;6.08;100.00
5595;BME280;1003;48.002;7.788;2022-11-28T03:54:13;99799.34;;;6.10;100.00
5595;BME280;1003;48.002;7.788;2022-11-28T03:56:49;99750.19;;;6.06;100.00
5595;BME280;1003;48.002;7.788;2022-11-28T03:59:23;99525.63;;;6.06;100.00
5595;BME280;1003;48.002;7.788;2022-11-28T04:02:00;99512.25;;;6.02;100.00
5595;BME280;1003;48.002;7.788;2022-11-28T04:04:35;99503.06;;;5.98;100.00
5595;BME280;1003;48.002;7.788;2022-11-28T04:07:21;99495.53;;;5.95;100.00
5595;BME280;1003;48.002;7.788;2022-11-28T04:09:56;99480.59;;;5.97;100.00
5595;BME280;1003;48.002;7.788;2022-11-28T04:12:38;99473.97;;;5.99;100.00
5595;BME280;1003;48.002;7.788;2022-11-28T04:15:13;99452.34;;;5.98;100.00
5595;BME280;1003;48.002;7.788;2022-11-28T04:17:50;99444.03;;;5.99;100.00
5595;BME280;1003;48.002;7.788;2022-11-28T04:20:30;99434.06;;;5.99;100.00
5595;BME280;1003;48.002;7.788;2022-11-28T04:23:06;99426.59;;;6.00;100.00
5595;BME280;1003;48.002;7.788;2022-11-28T04:25:39;99416.59;;;6.00;100.00
5595;BME280;1003;48.002;7.788;2022-11-28T04:28:12;99406.63;;;6.00;100.00
5595;BME280;1003;48.002;7.788;2022-11-28T04:30:42;99410.84;;;6.06;100.00
5595;BME280;1003;48.002;7.788;2022-11-28T04:33:13;99415.78;;;6.01;100.00
5595;BME280;1003;48.002;7.788;2022-11-28T04:35:46;99389.94;;;5.96;100.00
5595;BME280;1003;48.002;7.788;2022-11-28T04:38:20;99379.13;;;5.94;100.00
5595;BME280;1003;48.002;7.788;2022-11-28T04:40:53;99474.75;;;5.96;100.00
5595;BME280;1003;48.002;7.788;2022-11-28T04:43:27;99454.88;;;6.02;100.00
5595;BME280;1003;48.002;7.788;2022-11-28T04:46:04;99436.63;;;6.07;100.00
5595;BME280;1003;48.002;7.788;2022-11-28T04:48:33;99410.91;;;6.11;100.00
5595;BME280;1003;48.002;7.788;2022-11-28T04:51:13;99399.25;;;6.10;100.00
5595;BME280;1003;48.002;7.788;2022-11-28T04:53:50;99380.06;;;6.04;100.00
5595;BME280;1003;48.002;7.788;2022-11-28T04:56:32;99354.25;;;6.00;100.00
5595;BME280;1003;48.002;7.788;2022-11-28T04:59:05;99340.03;;;5.95;100.00
5595;BME280;1003;48.002;7.788;2022-11-28T05:01:35;99327.47;;;5.90;100.00
5595;BME280;1003;48.002;7.788;2022-11-28T05:04:06;99305.81;;;5.86;100.00
5595;BME280;1003;48.002;7.788;2022-11-28T05:06:35;99289.97;;;5.81;100.00
5595;BME280;1003;48.002;7.788;2022-11-28T05:09:04;99281.63;;;5.79;100.00
5595;BME280;1003;48.002;7.788;2022-11-28T05:11:31;99274.16;;;5.77;100.00
5595;BME280;1003;48.002;7.788;2022-11-28T05:13:58;99265.78;;;5.75;100.00
5595;BME280;1003;48.002;7.788;2022-11-28T05:16:25;99263.31;;;5.75;100.00
5595;BME280;1003;48.002;7.788;2022-11-28T05:18:53;99245.00;;;5.75;100.00
5595;BME280;1003;48.002;7.788;2022-11-28T05:21:20;99241.66;;;5.71;100.00
5595;BME280;1003;48.002;7.788;2022-11-28T05:23:47;99240.94;;;5.82;100.00
5595;BME280;1003;48.002;7.788;2022-11-28T05:26:19;99231.81;;;5.82;100.00
5595;BME280;1003;48.002;7.788;2022-11-28T05:28:49;99219.28;;;5.80;100.00
5595;BME280;1003;48.002;7.788;2022-11-28T05:31:17;99219.34;;;5.85;100.00
5595;BME280;1003;48.002;7.788;2022-11-28T05:33:45;99222.63;;;5.81;100.00
5595;BME280;1003;48.002;7.788;2022-11-28T05:36:14;99219.22;;;5.73;100.00
5595;BME280;1003;48.002;7.788;2022-11-28T05:38:42;99217.50;;;5.66;100.00
5595;BME280;1003;48.002;7.788;2022-11-28T05:41:18;99216.56;;;5.55;100.00
5595;BME280;1003;48.002;7.788;2022-11-28T05:43:46;99222.34;;;5.50;100.00
5595;BME280;1003;48.002;7.788;2022-11-28T05:46:13;99221.38;;;5.42;100.00
5595;BME280;1003;48.002;7.788;2022-11-28T05:48:40;99215.53;;;5.37;100.00
5595;BME280;1003;48.002;7.788;2022-11-28T05:51:08;99213.00;;;5.34;100.00
5595;BME280;1003;48.002;7.788;2022-11-28T05:53:35;99212.13;;;5.32;100.00
5595;BME280;1003;48.002;7.788;2022-11-28T05:56:06;99218.00;;;5.34;100.00
5595;BME280;1003;48.002;7.788;2022-11-28T05:58:35;99214.69;;;5.35;100.00
5595;BME280;1003;48.002;7.788;2022-11-28T06:01:10;99223.81;;;5.38;100.00
5595;BME280;1003;48.002;7.788;2022-11-28T06:03:37;99225.53;;;5.40;100.00
5595;BME280;1003;48.002;7.788;2022-11-28T06:06:10;99225.56;;;5.43;100.00
5595;BME280;1003;48.002;7.788;2022-11-28T06:08:37;99229.88;;;5.58;100.00
5595;BME280;1003;48.002;7.788;2022-11-28T06:11:05;99237.53;;;5.75;100.00
5595;BME280;1003;48.002;7.788;2022-11-28T06:13:33;99241.09;;;5.94;100.00
5595;BME280;1003;48.002;7.788;2022-11-28T06:16:00;99243.88;;;6.26;100.00
5595;BME280;1003;48.002;7.788;2022-11-28T06:18:27;99245.75;;;6.54;100.00
5595;BME280;1003;48.002;7.788;2022-11-28T06:20:54;99240.81;;;6.64;100.00
5595;BME280;1003;48.002;7.788;2022-11-28T06:23:21;99231.69;;;6.69;100.00
5595;BME280;1003;48.002;7.788;2022-11-28T06:25:49;99207.41;;;6.51;100.00
5595;BME280;1003;48.002;7.788;2022-11-28T06:28:16;99206.50;;;6.38;100.00
5595;BME280;1003;48.002;7.788;2022-11-28T06:30:44;99198.97;;;6.32;100.00
5595;BME280;1003;48.002;7.788;2022-11-28T06:33:11;99195.56;;;6.19;100.00
5595;BME280;1003;48.002;7.788;2022-11-28T06:35:38;99200.53;;;6.18;100.00
5595;BME280;1003;48.002;7.788;2022-11-28T06:38:05;99206.31;;;6.12;100.00
5595;BME280;1003;48.002;7.788;2022-11-28T06:40:32;99207.84;;;5.95;100.00
5595;BME280;1003;48.002;7.788;2022-11-28T06:42:59;99211.16;;;5.97;100.00
5595;BME280;1003;48.002;7.788;2022-11-28T06:45:27;99209.50;;;5.96;100.00
5595;BME280;1003;48.002;7.788;2022-11-28T06:47:55;99220.28;;;5.93;100.00
5595;BME280;1003;48.002;7.788;2022-11-28T06:50:22;99225.28;;;5.96;100.00
5595;BME280;1003;48.002;7.788;2022-11-28T06:52:49;99234.44;;;5.94;100.00
5595;BME280;1003;48.002;7.788;2022-11-28T06:55:16;99233.59;;;5.95;100.00
5595;BME280;1003;48.002;7.788;2022-11-28T06:57:43;99237.75;;;5.95;100.00
5595;BME280;1003;48.002;7.788;2022-11-28T07:00:11;99244.41;;;5.96;100.00
5595;BME280;1003;48.002;7.788;2022-11-28T07:02:39;99248.63;;;6.00;100.00
5595;BME280;1003;48.002;7.788;2022-11-28T07:05:08;99249.44;;;5.97;100.00
5595;BME280;1003;48.002;7.788;2022-11-28T07:07:35;99257.75;;;5.98;100.00
5595;BME280;1003;48.002;7.788;2022-11-28T07:10:03;99258.53;;;5.92;100.00
5595;BME280;1003;48.002;7.788;2022-11-28T07:12:30;99259.44;;;5.99;100.00
5595;BME280;1003;48.002;7.788;2022-11-28T07:14:57;99266.09;;;6.01;100.00
5595;BME280;1003;48.002;7.788;2022-11-28T07:17:24;99271.13;;;6.03;100.00
5595;BME280;1003;48.002;7.788;2022-11-28T07:19:51;99280.22;;;6.02;100.00
5595;BME280;1003;48.002;7.788;2022-11-28T07:22:20;99286.09;;;6.08;100.00
5595;BME280;1003;48.002;7.788;2022-11-28T07:24:47;99289.47;;;6.08;100.00
5595;BME280;1003;48.002;7.788;2022-11-28T07:27:14;99292.81;;;6.10;100.00
5595;BME280;1003;48.002;7.788;2022-11-28T07:29:41;99302.78;;;6.13;100.00
5595;BME280;1003;48.002;7.788;2022-11-28T07:32:08;99305.31;;;6.15;100.00
5595;BME280;1003;48.002;7.788;2022-11-28T07:34:35;99311.19;;;6.20;100.00
5595;BME280;1003;48.002;7.788;2022-11-28T07:37:02;99314.56;;;6.25;100.00
5595;BME280;1003;48.002;7.788;2022-11-28T07:39:31;99319.56;;;6.26;100.00
5595;BME280;1003;48.002;7.788;2022-11-28T07:41:58;99315.47;;;6.31;100.00
5595;BME280;1003;48.002;7.788;2022-11-28T07:44:25;99318.00;;;6.38;100.00
5595;BME280;1003;48.002;7.788;2022-11-28T07:46:52;99323.88;;;6.43;100.00
5595;BME280;1003;48.002;7.788;2022-11-28T07:49:19;99318.09;;;6.48;100.00
5595;BME280;1003;48.002;7.788;2022-11-28T07:51:46;99322.34;;;6.58;100.00
5595;BME280;1003;48.002;7.788;2022-11-28T07:54:13;99322.41;;;6.63;100.00
5595;BME280;1003;48.002;7.788;2022-11-28T07:56:42;99312.44;;;6.71;100.00
5595;BME280;1003;48.002;7.788;2022-11-28T07:59:09;99318.34;;;6.82;100.00
5595;BME280;1003;48.002;7.788;2022-11-28T08:01:36;99315.09;;;6.92;100.00
5595;BME280;1003;48.002;7.788;2022-11-28T08:04:07;99311.00;;;7.02;100.00
5595;BME280;1003;48.002;7.788;2022-11-28T08:06:37;99307.75;;;7.10;100.00
5595;BME280;1003;48.002;7.788;2022-11-28T08:09:05;99300.28;;;7.17;100.00
5595;BME280;1003;48.002;7.788;2022-11-28T08:11:34;99287.81;;;7.24;100.00
5595;BME280;1003;48.002;7.788;2022-11-28T08:14:03;99276.16;;;7.31;100.00
5595;BME280;1003;48.002;7.788;2022-11-28T08:16:31;99262.84;;;7.36;100.00
5595;BME280;1003;48.002;7.788;2022-11-28T08:19:00;99252.91;;;7.43;100.00
5595;BME280;1003;48.002;7.788;2022-11-28T08:21:30;99262.94;;;7.53;100.00
5595;BME280;1003;48.002;7.788;2022-11-28T08:23:59;99255.44;;;7.64;100.00
5595;BME280;1003;48.002;7.788;2022-11-28T08:26:29;99258.84;;;7.90;100.00
5595;BME280;1003;48.002;7.788;2022-11-28T08:28:57;99258.03;;;8.11;100.00
5595;BME280;1003;48.002;7.788;2022-11-28T08:31:29;99250.59;;;8.45;100.00
5595;BME280;1003;48.002;7.788;2022-11-28T08:33:59;99227.97;;;8.80;100.00
5595;BME280;1003;48.002;7.788;2022-11-28T08:36:27;99203.72;;;8.99;100.00
5595;BME280;1003;48.002;7.788;2022-11-28T08:38:54;99185.22;;;9.26;100.00
5595;BME280;1003;48.002;7.788;2022-11-28T08:41:22;99154.22;;;9.35;100.00
5595;BME280;1003;48.002;7.788;2022-11-28T08:43:50;99130.72;;;9.51;100.00
5595;BME280;1003;48.002;7.788;2022-11-28T08:46:19;99109.69;;;9.67;100.00
5595;BME280;1003;48.002;7.788;2022-11-28T08:48:50;99071.19;;;9.68;100.00
5595;BME280;1003;48.002;7.788;2022-11-28T08:51:19;99053.50;;;9.85;100.00
5595;BME280;1003;48.002;7.788;2022-11-28T08:53:49;99031.59;;;9.98;100.00
5595;BME280;1003;48.002;7.788;2022-11-28T08:56:16;99009.75;;;10.08;100.00
5595;BME280;1003;48.002;7.788;2022-11-28T08:58:43;98992.91;;;10.17;100.00
5595;BME280;1003;48.002;7.788;2022-11-28T09:01:16;98983.66;;;10.24;100.00
5595;BME280;1003;48.002;7.788;2022-11-28T09:03:44;98950.88;;;10.32;100.00
5595;BME280;1003;48.002;7.788;2022-11-28T09:06:13;98942.47;;;10.36;100.00
5595;BME280;1003;48.002;7.788;2022-11-28T09:08:41;98934.00;;;10.44;100.00
5595;BME280;1003;48.002;7.788;2022-11-28T09:11:09;98922.94;;;10.55;100.00
5595;BME280;1003;48.002;7.788;2022-11-28T09:13:37;98911.19;;;10.57;100.00
5595;BME280;1003;48.002;7.788;2022-11-28T09:16:06;98907.78;;;10.59;100.00
5595;BME280;1003;48.002;7.788;2022-11-28T09:18:33;98901.88;;;10.63;100.00
5595;BME280;1003;48.002;7.788;2022-11-28T09:21:03;98908.34;;;10.80;100.00
5595;BME280;1003;48.002;7.788;2022-11-28T09:23:33;98909.16;;;10.80;100.00
5595;BME280;1003;48.002;7.788;2022-11-28T09:26:05;98892.34;;;10.84;100.00
5595;BME280;1003;48.002;7.788;2022-11-28T09:28:32;98887.25;;;10.87;100.00
5595;BME280;1003;48.002;7.788;2022-11-28T09:31:00;98885.59;;;10.87;100.00
5595;BME280;1003;48.002;7.788;2022-11-28T09:33:28;98883.94;;;10.85;100.00
5595;BME280;1003;48.002;7.788;2022-11-28T09:35:57;98895.66;;;10.87;100.00
5595;BME280;1003;48.002;7.788;2022-11-28T09:38:28;98885.53;;;10.90;100.00
5595;BME280;1003;48.002;7.788;2022-11-28T09:40:56;98885.41;;;10.99;100.00
5595;BME280;1003;48.002;7.788;2022-11-28T09:43:31;98883.53;;;11.11;100.00
5595;BME280;1003;48.002;7.788;2022-11-28T09:46:05;98876.66;;;11.20;100.00
5595;BME280;1003;48.002;7.788;2022-11-28T09:48:40;98876.84;;;11.10;100.00
5595;BME280;1003;48.002;7.788;2022-11-28T09:51:22;98876.03;;;11.09;100.00
5595;BME280;1003;48.002;7.788;2022-11-28T09:54:03;98893.69;;;11.03;100.00
5595;BME280;1003;48.002;7.788;2022-11-28T09:56:35;98902.00;;;11.10;100.00
5595;BME280;1003;48.002;7.788;2022-11-28T09:59:19;98921.47;;;10.97;100.00
5595;BME280;1003;48.002;7.788;2022-11-28T10:01:59;98951.81;;;10.86;100.00
5595;BME280;1003;48.002;7.788;2022-11-28T10:04:40;98972.03;;;10.78;100.00
5595;BME280;1003;48.002;7.788;2022-11-28T10:07:16;98979.69;;;10.69;100.00
5595;BME280;1003;48.002;7.788;2022-11-28T10:09:54;98989.75;;;10.69;100.00
5595;BME280;1003;48.002;7.788;2022-11-28T10:12:37;98989.00;;;10.63;100.00
5595;BME280;1003;48.002;7.788;2022-11-28T10:15:26;98999.72;;;10.77;100.00
5595;BME280;1003;48.002;7.788;2022-11-28T10:18:15;99012.28;;;10.77;100.00
5595;BME280;1003;48.002;7.788;2022-11-28T10:20:47;99028.22;;;10.74;100.00
5595;BME280;1003;48.002;7.788;2022-11-28T10:23:22;99036.72;;;10.64;100.00
5595;BME280;1003;48.002;7.788;2022-11-28T10:25:54;99041.09;;;10.51;100.00
5595;BME280;1003;48.002;7.788;2022-11-28T10:28:31;99057.69;;;10.66;100.00
5595;BME280;1003;48.002;7.788;2022-11-28T10:31:04;99055.16;;;10.66;100.00
5595;BME280;1003;48.002;7.788;2022-11-28T10:33:41;99056.06;;;10.59;100.00
5595;BME280;1003;48.002;7.788;2022-11-28T10:36:19;99058.56;;;10.62;100.00
5595;BME280;1003;48.002;7.788;2022-11-28T10:38:49;99062.81;;;10.57;100.00
5595;BME280;1003;48.002;7.788;2022-11-28T10:41:23;99071.03;;;10.71;100.00
5595;BME280;1003;48.002;7.788;2022-11-28T10:44:02;99065.13;;;10.72;100.00
5595;BME280;1003;48.002;7.788;2022-11-28T10:46:44;99065.97;;;10.73;100.00
5595;BME280;1003;48.002;7.788;2022-11-28T10:49:39;99073.53;;;10.70;100.00
5595;BME280;1003;48.002;7.788;2022-11-28T10:52:20;99074.34;;;10.73;100.00
5595;BME280;1003;48.002;7.788;2022-11-28T10:55:20;99087.56;;;10.88;100.00
5595;BME280;1003;48.002;7.788;2022-11-28T10:58:04;99083.22;;;10.97;100.00
5595;BME280;1003;48.002;7.788;2022-11-28T11:00:35;99088.16;;;11.05;100.00
5595;BME280;1003;48.002;7.788;2022-11-28T11:03:04;99080.69;;;11.00;100.00
5595;BME280;1003;48.002;7.788;2022-11-28T11:05:36;99084.88;;;11.00;100.00
5595;BME280;1003;48.002;7.788;2022-11-28T11:08:19;99087.41;;;11.00;100.00
5595;BME280;1003;48.002;7.788;2022-11-28T11:10:49;99082.44;;;10.95;100.00
5595;BME280;1003;48.002;7.788;2022-11-28T11:13:20;99067.38;;;10.94;100.00
5595;BME280;1003;48.002;7.788;2022-11-28T11:15:57;99080.56;;;11.08;100.00
5595;BME280;1003;48.002;7.788;2022-11-28T11:18:30;99077.31;;;11.01;100.00
5595;BME280;1003;48.002;7.788;2022-11-28T11:21:14;99076.47;;;11.01;100.00
5595;BME280;1003;48.002;7.788;2022-11-28T11:23:42;99080.75;;;10.96;100.00
5595;BME280;1003;48.002;7.788;2022-11-28T11:26:23;99076.66;;;10.89;100.00
5595;BME280;1003;48.002;7.788;2022-11-28T11:28:51;99073.44;;;10.77;100.00
5595;BME280;1003;48.002;7.788;2022-11-28T11:31:26;99070.94;;;10.76;100.00
5595;BME280;1003;48.002;7.788;2022-11-28T11:34:03;99081.00;;;10.77;100.00
5595;BME280;1003;48.002;7.788;2022-11-28T11:36:34;99071.78;;;10.75;100.00
5595;BME280;1003;48.002;7.788;2022-11-28T11:39:20;99080.06;;;10.85;100.00
5595;BME280;1003;48.002;7.788;2022-11-28T11:41:49;99086.66;;;10.93;100.00
5595;BME280;1003;48.002;7.788;2022-11-28T11:44:28;99096.59;;;11.01;100.00
5595;BME280;1003;48.002;7.788;2022-11-28T11:46:59;99100.69;;;11.08;100.00
5595;BME280;1003;48.002;7.788;2022-11-28T11:49:31;99107.31;;;11.14;100.00
5595;BME280;1003;48.002;7.788;2022-11-28T11:52:03;99114.75;;;11.23;100.00
5595;BME280;1003;48.002;7.788;2022-11-28T11:54:31;99117.94;;;11.34;100.00
5595;BME280;1003;48.002;7.788;2022-11-28T11:57:00;99127.06;;;11.43;100.00
5595;BME280;1003;48.002;7.788;2022-11-28T11:59:32;99133.72;;;11.47;100.00
5595;BME280;1003;48.002;7.788;2022-11-28T12:02:10;99136.94;;;11.55;100.00
5595;BME280;1003;48.002;7.788;2022-11-28T12:04:45;99137.84;;;11.49;100.00
5595;BME280;1003;48.002;7.788;2022-11-28T12:07:23;99137.88;;;11.48;100.00
5595;BME280;1003;48.002;7.788;2022-11-28T12:09:55;99143.75;;;11.48;100.00
5595;BME280;1003;48.002;7.788;2022-11-28T12:12:25;99152.09;;;11.50;100.00
5595;BME280;1003;48.002;7.788;2022-11-28T12:14:54;99149.78;;;11.38;100.00
5595;BME280;1003;48.002;7.788;2022-11-28T12:17:38;99145.19;;;11.04;100.00
5595;BME280;1003;48.002;7.788;2022-11-28T12:20:41;99182.59;;;11.30;100.00
5595;BME280;1003;48.002;7.788;2022-11-28T12:23:42;99195.03;;;11.41;100.00
5595;BME280;1003;48.002;7.788;2022-11-28T12:26:21;99199.06;;;11.53;100.00
5595;BME280;1003;48.002;7.788;2022-11-28T12:29:10;99213.97;;;11.68;100.00
5595;BME280;1003;48.002;7.788;2022-11-28T12:31:49;99218.13;;;11.69;100.00
5595;BME280;1003;48.002;7.788;2022-11-28T12:34:33;99213.03;;;11.74;100.00
5595;BME280;1003;48.002;7.788;2022-11-28T12:37:13;99218.94;;;11.71;100.00
5595;BME280;1003;48.002;7.788;2022-11-28T12:40:00;99211.41;;;11.70;100.00
5595;BME280;1003;48.002;7.788;2022-11-28T12:42:59;99185.50;;;11.62;100.00
5595;BME280;1003;48.002;7.788;2022-11-28T12:45:39;99188.94;;;11.56;100.00
5595;BME280;1003;48.002;7.788;2022-11-28T12:48:35;99190.78;;;11.46;100.00
5595;BME280;1003;48.002;7.788;2022-11-28T12:51:15;99204.31;;;11.38;100.00
5595;BME280;1003;48.002;7.788;2022-11-28T12:54:04;99193.50;;;11.29;100.00
5595;BME280;1003;48.002;7.788;2022-11-28T12:56:50;99202.03;;;11.19;100.00
5595;BME280;1003;48.002;7.788;2022-11-28T12:59:30;99198.06;;;11.00;100.00
5595;BME280;1003;48.002;7.788;2022-11-28T13:02:17;99203.97;;;10.96;100.00
5595;BME280;1003;48.002;7.788;2022-11-28T13:05:20;99205.63;;;10.98;100.00
5595;BME280;1003;48.002;7.788;2022-11-28T13:08:12;99208.34;;;10.82;100.00
5595;BME280;1003;48.002;7.788;2022-11-28T13:10:48;99229.16;;;10.91;100.00
5595;BME280;1003;48.002;7.788;2022-11-28T13:13:21;99231.66;;;10.94;100.00
5595;BME280;1003;48.002;7.788;2022-11-28T13:16:02;99235.84;;;10.94;100.00
5595;BME280;1003;48.002;7.788;2022-11-28T13:18:40;99244.34;;;10.82;100.00
5595;BME280;1003;48.002;7.788;2022-11-28T13:21:23;99249.50;;;10.71;100.00
5595;BME280;1003;48.002;7.788;2022-11-28T13:24:00;99260.34;;;10.73;100.00
5595;BME280;1003;48.002;7.788;2022-11-28T13:26:42;99265.47;;;10.66;100.00
5595;BME280;1003;48.002;7.788;2022-11-28T13:29:22;99277.19;;;10.64;100.00
5595;BME280;1003;48.002;7.788;2022-11-28T13:32:02;99303.22;;;10.57;100.00
5595;BME280;1003;48.002;7.788;2022-11-28T13:34:33;99357.72;;;10.51;100.00
5595;BME280;1003;48.002;7.788;2022-11-28T13:37:09;99367.78;;;10.48;100.00
5595;BME280;1003;48.002;7.788;2022-11-28T13:39:46;99382.13;;;10.36;100.00
5595;BME280;1003;48.002;7.788;2022-11-28T13:42:30;99390.47;;;10.41;100.00
5595;BME280;1003;48.002;7.788;2022-11-28T13:45:03;99398.84;;;10.37;100.00
5595;BME280;1003;48.002;7.788;2022-11-28T13:47:34;99405.56;;;10.35;100.00